To NAV CANADA Home Page Login to a new session Search on AWWS site Disclaimer Vers la page française équivalente Tips FAQ What's new on the site To the Forecasts and Observations / NOTAM section To "File a Flight Plan" website Publications and other links Update of the User's profile FIC Telephone Numbers My Weather Data Folder Route Weather Data Regional Weather Data Local Weather Data To the Forecasts and Observations / NOTAM section
Request Generated 01/23/2020 at 00:07:02 UTC . Weather information available at that time is displayed.

METAR/TAF

RANKIN INLET/NU    

METAR CYRT 230000Z 35020KT 5SM IC BLSN FEW120 SCT270 M36/M40 A3003 RMK AC1CI3 AC TR SLP177=
METAR CYRT 222300Z 35019KT 5SM IC BLSN FEW120 SCT270 M36/M40 A3000 RMK AC1CI2 SLP167=
METAR CYRT 222200Z 35020KT 5SM IC BLSN FEW120 SCT270 M36/M40 A2997 RMK AC1CI3 AC TR SLP158=

TAF CYRT 222338Z 2300/2312 35018KT P6SM SKC TEMPO 2300/2304 5SM IC
BLSN
BECMG 2302/2304 33010KT
RMK NXT FCST BY 230600Z=
Your time UTC time
Weather data provided by Environment Canada and NAV CANADA